sensor_id;sensor_type;location;lat;lon;timestamp;pressure;altitude;pressure_sealevel;temperature;humidity
71621;BME280;59471;42.254;23.102;2023-07-22T00:01:00;95767.97;;;21.94;60.31
71621;BME280;59471;42.254;23.102;2023-07-22T00:03:25;95766.53;;;21.65;62.33
71621;BME280;59471;42.254;23.102;2023-07-22T00:06:11;95779.97;;;21.75;61.98
71621;BME280;59471;42.254;23.102;2023-07-22T00:08:37;95782.22;;;21.83;61.76
71621;BME280;59471;42.254;23.102;2023-07-22T00:11:06;95786.06;;;21.92;61.59
71621;BME280;59471;42.254;23.102;2023-07-22T00:13:33;95784.09;;;21.83;61.29
71621;BME280;59471;42.254;23.102;2023-07-22T00:15:59;95803.66;;;21.93;61.44
71621;BME280;59471;42.254;23.102;2023-07-22T00:18:27;95801.25;;;21.92;61.10
71621;BME280;59471;42.254;23.102;2023-07-22T00:20:55;95803.53;;;21.83;61.17
71621;BME280;59471;42.254;23.102;2023-07-22T00:23:21;95806.16;;;21.78;61.10
71621;BME280;59471;42.254;23.102;2023-07-22T00:25:47;95803.66;;;21.93;60.01
71621;BME280;59471;42.254;23.102;2023-07-22T00:28:13;95796.78;;;21.97;59.86
71621;BME280;59471;42.254;23.102;2023-07-22T00:30:39;95801.56;;;21.95;60.64
71621;BME280;59471;42.254;23.102;2023-07-22T00:33:04;95810.22;;;22.08;59.52
71621;BME280;59471;42.254;23.102;2023-07-22T00:35:31;95817.72;;;22.11;59.24
71621;BME280;59471;42.254;23.102;2023-07-22T00:37:57;95822.97;;;22.01;59.92
71621;BME280;59471;42.254;23.102;2023-07-22T00:40:23;95810.63;;;21.94;60.01
71621;BME280;59471;42.254;23.102;2023-07-22T00:42:49;95818.25;;;22.13;60.03
71621;BME280;59471;42.254;23.102;2023-07-22T00:45:15;95826.13;;;21.97;59.85
71621;BME280;59471;42.254;23.102;2023-07-22T00:47:41;95809.25;;;21.70;59.92
71621;BME280;59471;42.254;23.102;2023-07-22T00:50:07;95813.09;;;21.79;60.05
71621;BME280;59471;42.254;23.102;2023-07-22T00:52:37;95809.28;;;21.97;60.15
71621;BME280;59471;42.254;23.102;2023-07-22T00:55:04;95803.06;;;21.86;60.70
71621;BME280;59471;42.254;23.102;2023-07-22T00:57:31;95800.47;;;21.69;61.07
71621;BME280;59471;42.254;23.102;2023-07-22T00:59:57;95808.06;;;21.83;60.88
71621;BME280;59471;42.254;23.102;2023-07-22T01:02:22;95801.81;;;21.72;61.38
71621;BME280;59471;42.254;23.102;2023-07-22T01:04:49;95803.63;;;21.88;61.29
71621;BME280;59471;42.254;23.102;2023-07-22T01:07:17;95816.19;;;21.71;61.98
71621;BME280;59471;42.254;23.102;2023-07-22T01:09:44;95808.00;;;21.56;62.98
71621;BME280;59471;42.254;23.102;2023-07-22T01:12:10;95806.28;;;21.66;62.29
71621;BME280;59471;42.254;23.102;2023-07-22T01:14:38;95810.38;;;21.74;62.47
71621;BME280;59471;42.254;23.102;2023-07-22T01:17:09;95819.53;;;21.61;62.69
71621;BME280;59471;42.254;23.102;2023-07-22T01:19:36;95815.09;;;21.67;61.98
71621;BME280;59471;42.254;23.102;2023-07-22T01:22:06;95819.16;;;21.52;62.86
71621;BME280;59471;42.254;23.102;2023-07-22T01:24:33;95822.50;;;21.65;62.76
71621;BME280;59471;42.254;23.102;2023-07-22T01:26:59;95808.63;;;21.24;63.61
71621;BME280;59471;42.254;23.102;2023-07-22T01:29:25;95807.84;;;21.06;63.96
71621;BME280;59471;42.254;23.102;2023-07-22T01:31:52;95810.75;;;21.22;63.83
71621;BME280;59471;42.254;23.102;2023-07-22T01:34:19;95816.97;;;21.11;63.76
71621;BME280;59471;42.254;23.102;2023-07-22T01:36:46;95814.69;;;21.02;64.75
71621;BME280;59471;42.254;23.102;2023-07-22T01:39:13;95828.56;;;21.38;64.43
71621;BME280;59471;42.254;23.102;2023-07-22T01:41:39;95825.66;;;21.40;63.70
71621;BME280;59471;42.254;23.102;2023-07-22T01:44:05;95824.03;;;21.39;63.51
71621;BME280;59471;42.254;23.102;2023-07-22T01:46:30;95820.00;;;21.36;63.85
71621;BME280;59471;42.254;23.102;2023-07-22T01:48:56;95826.78;;;21.27;64.17
71621;BME280;59471;42.254;23.102;2023-07-22T01:51:22;95825.16;;;21.26;64.51
71621;BME280;59471;42.254;23.102;2023-07-22T01:53:48;95817.59;;;21.18;64.61
71621;BME280;59471;42.254;23.102;2023-07-22T01:56:15;95805.50;;;21.10;64.84
71621;BME280;59471;42.254;23.102;2023-07-22T01:58:42;95802.66;;;21.17;64.41
71621;BME280;59471;42.254;23.102;2023-07-22T02:01:08;95820.09;;;21.08;64.15
71621;BME280;59471;42.254;23.102;2023-07-22T02:03:33;95817.00;;;21.33;62.73
71621;BME280;59471;42.254;23.102;2023-07-22T02:06:03;95815.00;;;21.23;63.27
71621;BME280;59471;42.254;23.102;2023-07-22T02:08:29;95799.19;;;21.16;63.36
71621;BME280;59471;42.254;23.102;2023-07-22T02:10:58;95810.16;;;21.20;62.81
71621;BME280;59471;42.254;23.102;2023-07-22T02:13:25;95821.94;;;21.24;63.17
71621;BME280;59471;42.254;23.102;2023-07-22T02:15:51;95819.97;;;21.53;62.30
71621;BME280;59471;42.254;23.102;2023-07-22T02:18:16;95817.59;;;21.18;63.29
71621;BME280;59471;42.254;23.102;2023-07-22T02:20:42;95812.44;;;21.28;64.04
71621;BME280;59471;42.254;23.102;2023-07-22T02:23:08;95819.22;;;21.36;63.44
71621;BME280;59471;42.254;23.102;2023-07-22T02:25:35;95825.91;;;21.38;63.18
71621;BME280;59471;42.254;23.102;2023-07-22T02:28:01;95817.03;;;21.16;63.73
71621;BME280;59471;42.254;23.102;2023-07-22T02:30:26;95822.44;;;21.21;63.45
71621;BME280;59471;42.254;23.102;2023-07-22T02:32:52;95818.66;;;21.17;62.50
71621;BME280;59471;42.254;23.102;2023-07-22T02:35:17;95818.56;;;21.12;63.81
71621;BME280;59471;42.254;23.102;2023-07-22T02:37:43;95820.50;;;21.16;63.64
71621;BME280;59471;42.254;23.102;2023-07-22T02:40:09;95825.34;;;21.19;63.46
71621;BME280;59471;42.254;23.102;2023-07-22T02:42:38;95815.19;;;21.16;63.65
71621;BME280;59471;42.254;23.102;2023-07-22T02:45:04;95825.09;;;21.21;63.60
71621;BME280;59471;42.254;23.102;2023-07-22T02:47:32;95818.56;;;21.12;63.82
71621;BME280;59471;42.254;23.102;2023-07-22T02:49:58;95828.72;;;21.32;63.48
71621;BME280;59471;42.254;23.102;2023-07-22T02:52:23;95828.56;;;21.21;63.78
71621;BME280;59471;42.254;23.102;2023-07-22T02:55:08;95827.31;;;20.90;64.71
71621;BME280;59471;42.254;23.102;2023-07-22T02:57:36;95830.03;;;20.95;65.83
71621;BME280;59471;42.254;23.102;2023-07-22T03:00:04;95834.25;;;20.91;65.46
71621;BME280;59471;42.254;23.102;2023-07-22T03:02:36;95826.84;;;20.93;65.66
71621;BME280;59471;42.254;23.102;2023-07-22T03:05:06;95826.28;;;20.74;65.52
71621;BME280;59471;42.254;23.102;2023-07-22T03:07:37;95828.03;;;20.69;66.75
71621;BME280;59471;42.254;23.102;2023-07-22T03:10:07;95828.34;;;20.55;66.40
71621;BME280;59471;42.254;23.102;2023-07-22T03:12:33;95826.00;;;20.76;66.12
71621;BME280;59471;42.254;23.102;2023-07-22T03:14:59;95832.88;;;20.72;66.25
71621;BME280;59471;42.254;23.102;2023-07-22T03:17:25;95829.31;;;20.83;66.79
71621;BME280;59471;42.254;23.102;2023-07-22T03:19:51;95835.50;;;20.55;66.57
71621;BME280;59471;42.254;23.102;2023-07-22T03:22:17;95833.09;;;20.70;66.90
71621;BME280;59471;42.254;23.102;2023-07-22T03:24:44;95831.81;;;20.73;66.91
71621;BME280;59471;42.254;23.102;2023-07-22T03:27:11;95836.34;;;20.55;67.31
71621;BME280;59471;42.254;23.102;2023-07-22T03:29:37;95839.72;;;20.68;66.91
71621;BME280;59471;42.254;23.102;2023-07-22T03:32:03;95827.09;;;20.46;67.47
71621;BME280;59471;42.254;23.102;2023-07-22T03:34:30;95834.50;;;20.44;67.75
71621;BME280;59471;42.254;23.102;2023-07-22T03:36:56;95832.47;;;20.63;68.31
71621;BME280;59471;42.254;23.102;2023-07-22T03:39:21;95832.06;;;20.71;67.60
71621;BME280;59471;42.254;23.102;2023-07-22T03:41:47;95835.19;;;20.51;67.83
71621;BME280;59471;42.254;23.102;2023-07-22T03:44:13;95828.53;;;20.37;68.84
71621;BME280;59471;42.254;23.102;2023-07-22T03:46:39;95837.84;;;20.51;68.75
71621;BME280;59471;42.254;23.102;2023-07-22T03:49:05;95840.66;;;20.62;68.72
71621;BME280;59471;42.254;23.102;2023-07-22T03:51:30;95845.81;;;20.51;69.06
71621;BME280;59471;42.254;23.102;2023-07-22T03:53:56;95850.69;;;20.43;68.80
71621;BME280;59471;42.254;23.102;2023-07-22T03:56:22;95855.19;;;20.71;68.19
71621;BME280;59471;42.254;23.102;2023-07-22T03:58:49;95864.22;;;20.70;68.19
71621;BME280;59471;42.254;23.102;2023-07-22T04:01:15;95851.78;;;20.58;68.23
71621;BME280;59471;42.254;23.102;2023-07-22T04:03:41;95859.78;;;20.58;68.45
71621;BME280;59471;42.254;23.102;2023-07-22T04:06:07;95857.47;;;20.79;68.46
71621;BME280;59471;42.254;23.102;2023-07-22T04:08:32;95865.13;;;20.75;69.01
71621;BME280;59471;42.254;23.102;2023-07-22T04:10:58;95864.31;;;20.75;68.78
71621;BME280;59471;42.254;23.102;2023-07-22T04:13:25;95867.66;;;21.16;66.38
71621;BME280;59471;42.254;23.102;2023-07-22T04:15:51;95869.00;;;21.01;66.75
71621;BME280;59471;42.254;23.102;2023-07-22T04:18:18;95865.06;;;21.04;66.77
71621;BME280;59471;42.254;23.102;2023-07-22T04:20:44;95867.31;;;20.95;67.62
71621;BME280;59471;42.254;23.102;2023-07-22T04:23:13;95866.50;;;21.12;66.48
71621;BME280;59471;42.254;23.102;2023-07-22T04:25:43;95870.69;;;21.08;67.44
71621;BME280;59471;42.254;23.102;2023-07-22T04:28:09;95873.75;;;20.99;68.84
71621;BME280;59471;42.254;23.102;2023-07-22T04:30:35;95871.44;;;21.03;69.81
71621;BME280;59471;42.254;23.102;2023-07-22T04:33:02;95877.72;;;21.14;69.06
71621;BME280;59471;42.254;23.102;2023-07-22T04:35:37;95868.03;;;21.41;67.74
71621;BME280;59471;42.254;23.102;2023-07-22T04:38:03;95879.94;;;21.56;67.95
71621;BME280;59471;42.254;23.102;2023-07-22T04:40:29;95883.09;;;21.69;65.30
71621;BME280;59471;42.254;23.102;2023-07-22T04:42:56;95877.44;;;21.66;66.09
71621;BME280;59471;42.254;23.102;2023-07-22T04:45:22;95871.47;;;21.59;66.15
71621;BME280;59471;42.254;23.102;2023-07-22T04:47:51;95875.69;;;21.55;66.94
71621;BME280;59471;42.254;23.102;2023-07-22T04:50:17;95878.69;;;21.80;65.80
71621;BME280;59471;42.254;23.102;2023-07-22T04:52:47;95873.25;;;22.14;64.64
71621;BME280;59471;42.254;23.102;2023-07-22T04:55:13;95874.47;;;22.28;65.01
71621;BME280;59471;42.254;23.102;2023-07-22T04:57:40;95874.78;;;22.59;64.21
71621;BME280;59471;42.254;23.102;2023-07-22T05:00:09;95874.47;;;22.28;65.86
71621;BME280;59471;42.254;23.102;2023-07-22T05:02:38;95871.94;;;22.38;66.87
71621;BME280;59471;42.254;23.102;2023-07-22T05:05:04;95875.59;;;22.59;66.88
71621;BME280;59471;42.254;23.102;2023-07-22T05:07:30;95884.75;;;22.68;66.61
71621;BME280;59471;42.254;23.102;2023-07-22T05:09:55;95893.22;;;22.87;66.22
71621;BME280;59471;42.254;23.102;2023-07-22T05:12:21;95889.97;;;23.12;64.89
71621;BME280;59471;42.254;23.102;2023-07-22T05:14:47;95894.44;;;23.39;62.85
71621;BME280;59471;42.254;23.102;2023-07-22T05:17:13;95898.16;;;23.33;62.32
71621;BME280;59471;42.254;23.102;2023-07-22T05:19:39;95900.97;;;23.16;62.80
71621;BME280;59471;42.254;23.102;2023-07-22T05:22:04;95898.84;;;23.18;62.96
71621;BME280;59471;42.254;23.102;2023-07-22T05:24:30;95903.69;;;23.21;62.92
71621;BME280;59471;42.254;23.102;2023-07-22T05:26:55;95901.34;;;23.30;62.49
71621;BME280;59471;42.254;23.102;2023-07-22T05:29:21;95905.00;;;23.56;61.60
71621;BME280;59471;42.254;23.102;2023-07-22T05:31:47;95914.16;;;23.65;61.57
71621;BME280;59471;42.254;23.102;2023-07-22T05:34:13;95904.41;;;23.49;63.36
71621;BME280;59471;42.254;23.102;2023-07-22T05:36:39;95910.41;;;23.66;63.64
71621;BME280;59471;42.254;23.102;2023-07-22T05:39:05;95896.06;;;23.82;63.51
71621;BME280;59471;42.254;23.102;2023-07-22T05:41:32;95906.84;;;23.98;63.16
71621;BME280;59471;42.254;23.102;2023-07-22T05:43:58;95894.06;;;24.10;62.79
71621;BME280;59471;42.254;23.102;2023-07-22T05:46:24;95898.09;;;24.18;62.37
71621;BME280;59471;42.254;23.102;2023-07-22T05:48:50;95894.69;;;24.38;61.79
71621;BME280;59471;42.254;23.102;2023-07-22T05:51:15;95891.56;;;24.56;60.92
71621;BME280;59471;42.254;23.102;2023-07-22T05:53:41;95889.41;;;24.58;60.54
71621;BME280;59471;42.254;23.102;2023-07-22T05:56:07;95890.53;;;24.72;60.71
71621;BME280;59471;42.254;23.102;2023-07-22T05:58:32;95892.13;;;24.84;60.78
71621;BME280;59471;42.254;23.102;2023-07-22T06:00:59;95902.88;;;24.94;59.92
71621;BME280;59471;42.254;23.102;2023-07-22T06:03:25;95886.84;;;25.19;58.01
71621;BME280;59471;42.254;23.102;2023-07-22T06:05:50;95901.00;;;25.40;57.63
71621;BME280;59471;42.254;23.102;2023-07-22T06:08:16;95899.13;;;25.46;57.57
71621;BME280;59471;42.254;23.102;2023-07-22T06:10:42;95903.94;;;25.59;57.64
71621;BME280;59471;42.254;23.102;2023-07-22T06:13:07;95902.63;;;25.52;56.70
71621;BME280;59471;42.254;23.102;2023-07-22T06:15:33;95909.56;;;25.53;57.33
71621;BME280;59471;42.254;23.102;2023-07-22T06:17:59;95915.19;;;25.66;57.68
71621;BME280;59471;42.254;23.102;2023-07-22T06:20:26;95906.31;;;25.92;56.53
71621;BME280;59471;42.254;23.102;2023-07-22T06:22:51;95909.25;;;25.95;57.03
71621;BME280;59471;42.254;23.102;2023-07-22T06:25:17;95909.22;;;26.00;56.66
71621;BME280;59471;42.254;23.102;2023-07-22T06:27:43;95907.53;;;26.25;56.85
71621;BME280;59471;42.254;23.102;2023-07-22T06:30:09;95910.38;;;26.54;56.04
71621;BME280;59471;42.254;23.102;2023-07-22T06:32:37;95908.13;;;26.71;54.85
71621;BME280;59471;42.254;23.102;2023-07-22T06:35:03;95910.66;;;26.52;53.70
71621;BME280;59471;42.254;23.102;2023-07-22T06:37:29;95912.78;;;26.55;55.40
71621;BME280;59471;42.254;23.102;2023-07-22T06:39:55;95910.22;;;26.79;56.09
71621;BME280;59471;42.254;23.102;2023-07-22T06:42:20;95902.44;;;26.78;54.80
71621;BME280;59471;42.254;23.102;2023-07-22T06:44:46;95911.91;;;27.04;52.39
71621;BME280;59471;42.254;23.102;2023-07-22T06:47:12;95904.53;;;26.86;53.05
71621;BME280;59471;42.254;23.102;2023-07-22T06:49:38;95915.00;;;26.88;53.91
71621;BME280;59471;42.254;23.102;2023-07-22T06:52:04;95911.34;;;27.08;51.79
71621;BME280;59471;42.254;23.102;2023-07-22T06:54:30;95909.88;;;26.91;52.69
71621;BME280;59471;42.254;23.102;2023-07-22T06:56:55;95900.03;;;27.11;53.23
71621;BME280;59471;42.254;23.102;2023-07-22T06:59:21;95903.50;;;27.50;52.40
71621;BME280;59471;42.254;23.102;2023-07-22T07:01:46;95903.97;;;27.58;51.48
71621;BME280;59471;42.254;23.102;2023-07-22T07:04:12;95902.84;;;27.64;50.53
71621;BME280;59471;42.254;23.102;2023-07-22T07:06:37;95912.75;;;27.68;50.87
71621;BME280;59471;42.254;23.102;2023-07-22T07:09:06;95902.59;;;27.60;50.51
71621;BME280;59471;42.254;23.102;2023-07-22T07:11:31;95903.81;;;27.78;50.14
71621;BME280;59471;42.254;23.102;2023-07-22T07:13:57;95904.91;;;27.72;49.69
71621;BME280;59471;42.254;23.102;2023-07-22T07:16:28;95911.59;;;28.04;50.17
71621;BME280;59471;42.254;23.102;2023-07-22T07:18:54;95896.81;;;28.25;48.99
71621;BME280;59471;42.254;23.102;2023-07-22T07:21:21;95902.28;;;28.39;49.75
71621;BME280;59471;42.254;23.102;2023-07-22T07:23:51;95896.69;;;28.35;49.02
71621;BME280;59471;42.254;23.102;2023-07-22T07:26:17;95897.25;;;28.32;49.71
71621;BME280;59471;42.254;23.102;2023-07-22T07:28:43;95903.66;;;28.60;49.25
71621;BME280;59471;42.254;23.102;2023-07-22T07:31:09;95896.16;;;28.76;48.28
71621;BME280;59471;42.254;23.102;2023-07-22T07:33:34;95893.38;;;28.81;47.79
71621;BME280;59471;42.254;23.102;2023-07-22T07:36:00;95899.94;;;28.94;48.11
71621;BME280;59471;42.254;23.102;2023-07-22T07:38:26;95894.88;;;28.87;47.30
71621;BME280;59471;42.254;23.102;2023-07-22T07:40:53;95900.09;;;29.03;49.21
71621;BME280;59471;42.254;23.102;2023-07-22T07:43:22;95891.97;;;28.84;48.79
71621;BME280;59471;42.254;23.102;2023-07-22T07:45:48;95899.94;;;29.13;47.87
71621;BME280;59471;42.254;23.102;2023-07-22T07:48:13;95893.34;;;29.19;47.78
71621;BME280;59471;42.254;23.102;2023-07-22T07:50:39;95894.38;;;29.23;47.16
71621;BME280;59471;42.254;23.102;2023-07-22T07:53:05;95890.91;;;29.04;48.69
71621;BME280;59471;42.254;23.102;2023-07-22T07:55:30;95900.00;;;29.41;47.95
71621;BME280;59471;42.254;23.102;2023-07-22T07:57:56;95902.53;;;28.99;48.82
71621;BME280;59471;42.254;23.102;2023-07-22T08:00:21;95901.44;;;29.52;49.67
71621;BME280;59471;42.254;23.102;2023-07-22T08:02:47;95900.41;;;29.67;49.72
71621;BME280;59471;42.254;23.102;2023-07-22T08:05:12;95896.22;;;29.74;48.78
71621;BME280;59471;42.254;23.102;2023-07-22T08:07:38;95899.16;;;30.19;49.02
71621;BME280;59471;42.254;23.102;2023-07-22T08:10:05;95894.72;;;30.37;48.47
71621;BME280;59471;42.254;23.102;2023-07-22T08:12:32;95898.31;;;30.33;48.47
71621;BME280;59471;42.254;23.102;2023-07-22T08:14:59;95883.28;;;30.54;46.33
71621;BME280;59471;42.254;23.102;2023-07-22T08:17:25;95884.19;;;30.77;47.35
71621;BME280;59471;42.254;23.102;2023-07-22T08:19:51;95879.38;;;30.60;46.25
71621;BME280;59471;42.254;23.102;2023-07-22T08:22:17;95882.28;;;30.78;47.47
71621;BME280;59471;42.254;23.102;2023-07-22T08:24:43;95885.53;;;30.88;46.04
71621;BME280;59471;42.254;23.102;2023-07-22T08:27:09;95889.53;;;30.91;47.14
71621;BME280;59471;42.254;23.102;2023-07-22T08:29:35;95872.81;;;30.89;45.33
71621;BME280;59471;42.254;23.102;2023-07-22T08:32:01;95875.22;;;31.13;46.28
71621;BME280;59471;42.254;23.102;2023-07-22T08:34:26;95872.56;;;31.22;45.44
71621;BME280;59471;42.254;23.102;2023-07-22T08:36:52;95864.94;;;31.01;45.50
71621;BME280;59471;42.254;23.102;2023-07-22T08:39:18;95877.63;;;31.37;45.83
71621;BME280;59471;42.254;23.102;2023-07-22T08:41:48;95869.47;;;31.59;45.62
71621;BME280;59471;42.254;23.102;2023-07-22T08:44:18;95869.41;;;31.82;44.94
71621;BME280;59471;42.254;23.102;2023-07-22T08:46:46;95862.69;;;32.11;46.21
71621;BME280;59471;42.254;23.102;2023-07-22T08:49:13;95856.97;;;32.21;43.42
71621;BME280;59471;42.254;23.102;2023-07-22T08:51:40;95846.84;;;32.52;40.13
71621;BME280;59471;42.254;23.102;2023-07-22T08:54:06;95858.53;;;32.22;41.67
71621;BME280;59471;42.254;23.102;2023-07-22T08:56:34;95848.75;;;32.61;38.80
71621;BME280;59471;42.254;23.102;2023-07-22T08:59:00;95851.31;;;32.74;37.56
71621;BME280;59471;42.254;23.102;2023-07-22T09:01:26;95844.59;;;32.72;36.49
71621;BME280;59471;42.254;23.102;2023-07-22T09:03:52;95847.47;;;32.84;36.55
71621;BME280;59471;42.254;23.102;2023-07-22T09:06:19;95834.53;;;33.16;38.41
71621;BME280;59471;42.254;23.102;2023-07-22T09:08:45;95829.63;;;33.00;35.62
71621;BME280;59471;42.254;23.102;2023-07-22T09:11:11;95840.31;;;32.80;35.82
71621;BME280;59471;42.254;23.102;2023-07-22T09:13:37;95836.59;;;33.19;36.63
71621;BME280;59471;42.254;23.102;2023-07-22T09:16:06;95836.22;;;33.46;35.74
71621;BME280;59471;42.254;23.102;2023-07-22T09:18:33;95830.78;;;33.46;35.18
71621;BME280;59471;42.254;23.102;2023-07-22T09:20:59;95827.06;;;33.68;35.77
71621;BME280;59471;42.254;23.102;2023-07-22T09:23:33;95823.31;;;33.52;34.97
71621;BME280;59471;42.254;23.102;2023-07-22T09:26:13;95818.44;;;33.66;34.79
71621;BME280;59471;42.254;23.102;2023-07-22T09:28:57;95820.56;;;33.61;35.93
71621;BME280;59471;42.254;23.102;2023-07-22T09:31:24;95810.91;;;33.25;35.43
71621;BME280;59471;42.254;23.102;2023-07-22T09:33:51;95818.09;;;33.77;35.42
71621;BME280;59471;42.254;23.102;2023-07-22T09:36:19;95813.75;;;33.84;34.47
71621;BME280;59471;42.254;23.102;2023-07-22T09:38:45;95816.72;;;33.91;34.01
71621;BME280;59471;42.254;23.102;2023-07-22T09:41:10;95819.44;;;33.91;34.89
71621;BME280;59471;42.254;23.102;2023-07-22T09:43:37;95812.41;;;33.61;34.51
71621;BME280;59471;42.254;23.102;2023-07-22T09:46:11;95804.34;;;34.11;35.38
71621;BME280;59471;42.254;23.102;2023-07-22T09:48:43;95803.91;;;34.30;34.73
71621;BME280;59471;42.254;23.102;2023-07-22T09:51:16;95807.91;;;34.54;33.84
71621;BME280;59471;42.254;23.102;2023-07-22T09:53:46;95803.63;;;34.53;33.16
71621;BME280;59471;42.254;23.102;2023-07-22T09:56:12;95794.03;;;34.47;32.50
71621;BME280;59471;42.254;23.102;2023-07-22T09:58:39;95797.94;;;34.58;33.89
71621;BME280;59471;42.254;23.102;2023-07-22T10:01:05;95791.53;;;34.63;33.07
71621;BME280;59471;42.254;23.102;2023-07-22T10:03:33;95792.97;;;34.81;33.34
71621;BME280;59471;42.254;23.102;2023-07-22T10:06:02;95795.47;;;34.86;33.12
71621;BME280;59471;42.254;23.102;2023-07-22T10:08:34;95786.63;;;35.10;33.50
71621;BME280;59471;42.254;23.102;2023-07-22T10:11:03;95789.13;;;35.15;32.76
71621;BME280;59471;42.254;23.102;2023-07-22T10:13:32;95790.84;;;35.20;33.55
71621;BME280;59471;42.254;23.102;2023-07-22T10:15:58;95787.69;;;34.97;31.52
71621;BME280;59471;42.254;23.102;2023-07-22T10:18:24;95786.75;;;34.93;32.04
71621;BME280;59471;42.254;23.102;2023-07-22T10:20:50;95782.72;;;35.32;30.43
71621;BME280;59471;42.254;23.102;2023-07-22T10:23:16;95783.84;;;35.31;31.50
71621;BME280;59471;42.254;23.102;2023-07-22T10:25:43;95788.94;;;35.33;32.36
71621;BME280;59471;42.254;23.102;2023-07-22T10:28:09;95784.94;;;35.76;31.95
71621;BME280;59471;42.254;23.102;2023-07-22T10:30:36;95780.00;;;35.44;31.77
71621;BME280;59471;42.254;23.102;2023-07-22T10:33:02;95777.69;;;35.22;32.35
71621;BME280;59471;42.254;23.102;2023-07-22T10:38:17;95784.94;;;35.88;31.33
71621;BME280;59471;42.254;23.102;2023-07-22T10:43:18;95769.69;;;35.62;30.76
71621;BME280;59471;42.254;23.102;2023-07-22T10:45:51;95777.06;;;36.23;32.20
71621;BME280;59471;42.254;23.102;2023-07-22T10:48:22;95775.06;;;36.48;31.93
71621;BME280;59471;42.254;23.102;2023-07-22T10:50:55;95771.53;;;36.60;31.15
71621;BME280;59471;42.254;23.102;2023-07-22T10:56:42;95786.06;;;36.11;30.98
71621;BME280;59471;42.254;23.102;2023-07-22T10:59:01;95762.63;;;35.49;31.14
71621;BME280;59471;42.254;23.102;2023-07-22T11:12:16;95742.81;;;36.78;26.24
71621;BME280;59471;42.254;23.102;2023-07-22T11:17:15;95746.16;;;37.16;26.33
71621;BME280;59471;42.254;23.102;2023-07-22T11:19:43;95759.59;;;36.64;24.86
71621;BME280;59471;42.254;23.102;2023-07-22T11:22:09;95755.56;;;36.74;24.01
71621;BME280;59471;42.254;23.102;2023-07-22T11:24:36;95758.84;;;36.80;26.11
71621;BME280;59471;42.254;23.102;2023-07-22T11:27:06;95750.31;;;36.97;25.27
71621;BME280;59471;42.254;23.102;2023-07-22T11:29:34;95741.78;;;37.27;27.09
71621;BME280;59471;42.254;23.102;2023-07-22T11:32:00;95744.38;;;37.07;26.14
71621;BME280;59471;42.254;23.102;2023-07-22T11:34:27;95736.03;;;37.32;25.47
71621;BME280;59471;42.254;23.102;2023-07-22T11:36:54;95745.28;;;37.43;26.27
71621;BME280;59471;42.254;23.102;2023-07-22T11:39:22;95735.94;;;37.13;26.22
71621;BME280;59471;42.254;23.102;2023-07-22T11:41:49;95731.97;;;37.26;25.84
71621;BME280;59471;42.254;23.102;2023-07-22T11:44:20;95729.44;;;37.33;26.20
71621;BME280;59471;42.254;23.102;2023-07-22T11:46:56;95733.13;;;37.56;26.63
71621;BME280;59471;42.254;23.102;2023-07-22T11:52:07;95727.28;;;37.26;27.00
71621;BME280;59471;42.254;23.102;2023-07-22T11:54:34;95712.84;;;37.26;26.18
71621;BME280;59471;42.254;23.102;2023-07-22T11:57:23;95721.25;;;37.17;25.51
71621;BME280;59471;42.254;23.102;2023-07-22T11:59:56;95718.31;;;37.57;24.91
71621;BME280;59471;42.254;23.102;2023-07-22T12:02:26;95711.28;;;37.56;24.55
71621;BME280;59471;42.254;23.102;2023-07-22T12:05:02;95715.16;;;37.55;23.79
71621;BME280;59471;42.254;23.102;2023-07-22T12:07:30;95723.59;;;37.66;24.46
71621;BME280;59471;42.254;23.102;2023-07-22T12:09:59;95714.78;;;37.73;24.56
71621;BME280;59471;42.254;23.102;2023-07-22T12:12:39;95731.72;;;37.63;24.90
71621;BME280;59471;42.254;23.102;2023-07-22T12:15:20;95715.56;;;37.42;24.68
71621;BME280;59471;42.254;23.102;2023-07-22T12:20:24;95712.50;;;37.75;24.77
71621;BME280;59471;42.254;23.102;2023-07-22T12:22:51;95715.66;;;37.77;25.65
71621;BME280;59471;42.254;23.102;2023-07-22T12:25:17;95713.50;;;37.86;24.39
71621;BME280;59471;42.254;23.102;2023-07-22T12:27:43;95704.25;;;37.55;24.53
71621;BME280;59471;42.254;23.102;2023-07-22T12:30:09;95701.50;;;38.07;25.92
71621;BME280;59471;42.254;23.102;2023-07-22T12:32:35;95698.03;;;37.74;24.46
71621;BME280;59471;42.254;23.102;2023-07-22T12:35:01;95708.91;;;37.55;24.71
71621;BME280;59471;42.254;23.102;2023-07-22T12:37:28;95703.63;;;37.62;24.76
71621;BME280;59471;42.254;23.102;2023-07-22T12:39:54;95700.44;;;37.28;25.68
71621;BME280;59471;42.254;23.102;2023-07-22T12:42:21;95698.66;;;37.04;26.18
71621;BME280;59471;42.254;23.102;2023-07-22T12:44:46;95703.06;;;37.41;26.65
71621;BME280;59471;42.254;23.102;2023-07-22T12:47:12;95699.66;;;37.60;25.70
71621;BME280;59471;42.254;23.102;2023-07-22T12:49:37;95697.94;;;37.87;25.80
71621;BME280;59471;42.254;23.102;2023-07-22T12:52:03;95691.63;;;37.51;26.15
71621;BME280;59471;42.254;23.102;2023-07-22T12:54:33;95696.16;;;37.78;25.97
71621;BME280;59471;42.254;23.102;2023-07-22T12:56:58;95679.38;;;37.61;25.31
71621;BME280;59471;42.254;23.102;2023-07-22T12:59:24;95683.81;;;37.49;26.22
71621;BME280;59471;42.254;23.102;2023-07-22T13:01:49;95686.66;;;38.08;27.35
71621;BME280;59471;42.254;23.102;2023-07-22T13:04:15;95680.66;;;38.37;25.58
71621;BME280;59471;42.254;23.102;2023-07-22T13:06:40;95687.69;;;38.19;24.70
71621;BME280;59471;42.254;23.102;2023-07-22T13:09:06;95686.63;;;38.43;26.44
71621;BME280;59471;42.254;23.102;2023-07-22T13:11:31;95681.97;;;38.43;25.20
71621;BME280;59471;42.254;23.102;2023-07-22T13:13:57;95685.09;;;38.07;25.32
71621;BME280;59471;42.254;23.102;2023-07-22T13:16:22;95677.25;;;37.89;25.75